Time;durP1;ratioP1;P1;durP2;ratioP2;P2;SDS_P1;SDS_P2;PMS_P1;PMS_P2;Temp;Humidity;BMP_temperature;BMP_pressure;BME280_temperature;BME280_humidity;BME280_pressure;Samples;Min_cycle;Max_cycle;Signal;HPM_P1;HPM_P2
2021/04/17 00:01:39;;;;;;;9.13;3.53;;;7.60;64.90;;;;;;5019784;28;20022;-79
2021/04/17 00:04:07;;;;;;;7.40;3.57;;;7.60;64.90;;;;;;5041372;28;20034;-79
2021/04/17 00:06:33;;;;;;;7.07;4.37;;;7.60;65.20;;;;;;5025792;28;20479;-80
2021/04/17 00:09:02;;;;;;;7.63;4.33;;;7.60;65.00;;;;;;5038319;28;20041;-80
2021/04/17 00:11:28;;;;;;;7.87;4.47;;;7.60;64.90;;;;;;5021297;28;20167;-80
2021/04/17 00:13:55;;;;;;;7.37;4.30;;;7.50;65.10;;;;;;5018788;28;20034;-80
2021/04/17 00:16:21;;;;;;;7.50;4.53;;;7.40;65.20;;;;;;5016780;28;20457;-80
2021/04/17 00:18:49;;;;;;;9.70;5.00;;;7.40;65.40;;;;;;5034440;28;20034;-79
2021/04/17 00:21:15;;;;;;;8.87;5.17;;;7.40;65.80;;;;;;5029400;28;20056;-79
2021/04/17 00:23:40;;;;;;;6.60;4.27;;;7.40;65.60;;;;;;5035166;28;20033;-79
2021/04/17 00:26:06;;;;;;;11.43;4.60;;;7.20;66.20;;;;;;5019382;28;20083;-79
2021/04/17 00:28:32;;;;;;;6.30;3.90;;;7.30;66.50;;;;;;5018608;28;20147;-80
2021/04/17 00:30:58;;;;;;;4.90;3.40;;;7.30;66.50;;;;;;5035266;28;20116;-79
2021/04/17 00:33:23;;;;;;;6.83;4.10;;;7.30;66.80;;;;;;5018413;28;20167;-81
2021/04/17 00:35:49;;;;;;;11.10;4.73;;;7.30;66.90;;;;;;5052334;28;20126;-79
2021/04/17 00:38:15;;;;;;;6.90;4.43;;;7.20;67.20;;;;;;5035119;28;20492;-79
2021/04/17 00:40:41;;;;;;;6.27;4.10;;;7.20;67.20;;;;;;5034100;28;20094;-79
2021/04/17 00:43:07;;;;;;;6.23;4.13;;;7.20;67.10;;;;;;5034787;28;20091;-79
2021/04/17 00:45:33;;;;;;;6.77;4.13;;;7.20;67.50;;;;;;5034434;28;20039;-79
2021/04/17 00:47:58;;;;;;;8.87;4.40;;;7.30;67.70;;;;;;5034783;28;20044;-79
2021/04/17 00:50:25;;;;;;;5.37;3.73;;;7.30;67.40;;;;;;5035191;28;20035;-79
2021/04/17 00:52:52;;;;;;;7.37;4.80;;;7.30;67.30;;;;;;5006217;28;20040;-79
2021/04/17 00:55:17;;;;;;;6.17;3.97;;;7.20;66.90;;;;;;5046697;28;20033;-79
2021/04/17 00:57:43;;;;;;;4.97;3.47;;;7.20;67.20;;;;;;5000298;28;20120;-80
2021/04/17 01:00:09;;;;;;;11.80;5.07;;;7.20;67.60;;;;;;5034717;28;20493;-80
2021/04/17 01:02:40;;;;;;;6.63;4.63;;;7.20;67.30;;;;;;5033282;28;20060;-80
2021/04/17 01:05:08;;;;;;;8.30;4.77;;;7.10;67.40;;;;;;5033807;28;20064;-81
2021/04/17 01:07:42;;;;;;;9.53;5.33;;;7.00;67.70;;;;;;5017952;28;20550;-80
2021/04/17 01:10:26;;;;;;;7.33;4.90;;;6.90;67.80;;;;;;5053837;28;20478;-80
2021/04/17 01:12:54;;;;;;;9.60;4.23;;;6.90;68.00;;;;;;5033242;28;20045;-79
2021/04/17 01:15:21;;;;;;;6.80;4.13;;;6.90;68.50;;;;;;5052154;28;20032;-80
2021/04/17 01:17:50;;;;;;;7.70;4.47;;;6.80;68.40;;;;;;5033095;28;20056;-80
2021/04/17 01:20:30;;;;;;;9.97;4.80;;;6.90;68.90;;;;;;5033737;28;20022;-79
2021/04/17 01:23:23;;;;;;;6.60;4.40;;;6.90;68.60;;;;;;5050361;28;20132;-79
2021/04/17 01:25:57;;;;;;;7.35;5.18;;;6.90;68.70;;;;;;5033072;28;20037;-79
2021/04/17 01:28:24;;;;;;;7.10;3.83;;;6.80;68.30;;;;;;5051961;28;20037;-79
2021/04/17 01:30:53;;;;;;;7.33;3.97;;;6.70;68.90;;;;;;5016819;28;20022;-78
2021/04/17 01:33:22;;;;;;;7.57;4.50;;;6.70;69.40;;;;;;5033855;28;20032;-78
2021/04/17 01:35:49;;;;;;;8.03;4.10;;;6.70;69.40;;;;;;5032171;28;20033;-78
2021/04/17 01:38:20;;;;;;;6.43;3.73;;;6.70;69.40;;;;;;5033643;28;20462;-78
2021/04/17 01:40:49;;;;;;;11.87;5.20;;;6.80;69.50;;;;;;5032693;28;20021;-78
2021/04/17 01:43:16;;;;;;;7.83;4.90;;;6.70;69.00;;;;;;5050847;28;20029;-78
2021/04/17 01:45:44;;;;;;;10.70;5.30;;;6.60;69.20;;;;;;5032556;28;20025;-78
2021/04/17 01:48:11;;;;;;;7.03;3.87;;;6.60;69.50;;;;;;5051044;28;20067;-78
2021/04/17 01:50:39;;;;;;;8.07;4.67;;;6.60;69.60;;;;;;5000271;28;20029;-78
2021/04/17 01:53:08;;;;;;;7.70;4.10;;;6.50;69.40;;;;;;5014358;28;20114;-78
2021/04/17 01:55:35;;;;;;;10.87;4.77;;;6.50;69.90;;;;;;5045839;28;20085;-78
2021/04/17 01:58:02;;;;;;;6.73;4.33;;;6.50;70.30;;;;;;5016125;28;20108;-78
2021/04/17 02:00:29;;;;;;;8.03;3.87;;;6.60;70.10;;;;;;5016986;28;20025;-78
2021/04/17 02:02:54;;;;;;;8.10;4.20;;;6.60;70.10;;;;;;5032136;28;20032;-77
2021/04/17 02:05:20;;;;;;;5.03;3.27;;;6.60;69.80;;;;;;5033264;28;20033;-77
2021/04/17 02:07:46;;;;;;;8.93;4.80;;;6.50;69.80;;;;;;5032116;28;20498;-78
2021/04/17 02:10:12;;;;;;;7.30;4.03;;;6.40;69.80;;;;;;5032654;28;20466;-78
2021/04/17 02:12:37;;;;;;;8.40;4.03;;;6.40;69.90;;;;;;5009438;28;20195;-78
2021/04/17 02:15:05;;;;;;;9.57;3.70;;;6.40;70.00;;;;;;5010113;28;20065;-78
2021/04/17 02:17:53;;;;;;;8.50;4.47;;;6.40;70.20;;;;;;5026015;28;20037;-78
2021/04/17 02:20:27;;;;;;;8.60;3.77;;;6.40;69.80;;;;;;5026445;28;20033;-78
2021/04/17 02:22:54;;;;;;;8.73;3.90;;;6.40;70.30;;;;;;5010450;28;20029;-78
2021/04/17 02:25:20;;;;;;;6.37;3.30;;;6.40;70.60;;;;;;5021714;28;20471;-78
2021/04/17 02:27:46;;;;;;;5.60;4.17;;;6.40;70.80;;;;;;5028706;28;20053;-79
2021/04/17 02:30:12;;;;;;;8.10;4.00;;;6.40;70.10;;;;;;5030360;28;20108;-78
2021/04/17 02:32:37;;;;;;;7.50;3.90;;;6.40;70.20;;;;;;5013240;28;20379;-79
2021/04/17 02:35:03;;;;;;;8.53;3.87;;;6.40;70.40;;;;;;5029153;28;20053;-78
2021/04/17 02:37:29;;;;;;;6.30;3.70;;;6.40;70.80;;;;;;5029199;28;20459;-78
2021/04/17 02:39:55;;;;;;;5.70;3.30;;;6.30;70.40;;;;;;5012280;28;20044;-81
2021/04/17 02:42:20;;;;;;;6.83;3.80;;;6.30;70.80;;;;;;5013119;28;20030;-77
2021/04/17 02:44:46;;;;;;;6.43;3.63;;;6.30;71.00;;;;;;5029212;28;20038;-78
2021/04/17 02:47:12;;;;;;;5.63;3.27;;;6.40;71.10;;;;;;5029472;28;20493;-78
2021/04/17 02:49:38;;;;;;;5.47;3.20;;;6.30;70.80;;;;;;5029168;28;20092;-78
2021/04/17 02:52:05;;;;;;;6.77;4.17;;;6.30;71.00;;;;;;5029723;28;20025;-78
2021/04/17 02:54:30;;;;;;;5.60;3.70;;;6.30;71.00;;;;;;5008575;28;20123;-78
2021/04/17 02:56:56;;;;;;;8.30;4.00;;;6.20;71.10;;;;;;5025170;28;20526;-78
2021/04/17 02:59:22;;;;;;;7.30;3.40;;;6.20;71.00;;;;;;5030080;28;20475;-78
2021/04/17 03:01:47;;;;;;;7.50;4.20;;;6.10;71.40;;;;;;5029198;28;20049;-78
2021/04/17 03:04:13;;;;;;;5.53;3.60;;;6.00;71.10;;;;;;4995262;28;20064;-77
2021/04/17 03:06:39;;;;;;;7.50;4.17;;;6.00;71.50;;;;;;5029199;28;20544;-79
2021/04/17 03:09:05;;;;;;;7.10;3.90;;;6.00;71.30;;;;;;5028454;28;20037;-78
2021/04/17 03:11:30;;;;;;;7.87;3.70;;;5.90;71.20;;;;;;5029044;28;20029;-79
2021/04/17 03:13:57;;;;;;;6.67;4.27;;;5.90;71.80;;;;;;4995393;28;20065;-78
2021/04/17 03:16:23;;;;;;;8.50;4.20;;;5.80;71.50;;;;;;5029014;28;20025;-79
2021/04/17 03:18:48;;;;;;;5.83;3.60;;;5.70;71.80;;;;;;5029286;28;20040;-78
2021/04/17 03:21:14;;;;;;;8.23;4.30;;;5.70;72.10;;;;;;5011838;28;20299;-78
2021/04/17 03:23:40;;;;;;;7.30;3.77;;;5.70;72.10;;;;;;4996249;28;20041;-78
2021/04/17 03:26:05;;;;;;;7.33;3.53;;;5.80;72.60;;;;;;5011478;28;20475;-79
2021/04/17 03:28:31;;;;;;;8.30;3.30;;;5.70;72.40;;;;;;5032744;28;20030;-79
2021/04/17 03:30:57;;;;;;;7.17;3.97;;;5.70;72.60;;;;;;5016266;28;20197;-79
2021/04/17 03:33:23;;;;;;;6.87;4.27;;;5.70;72.50;;;;;;5034461;28;20107;-77
2021/04/17 03:35:48;;;;;;;8.40;4.10;;;5.70;72.50;;;;;;5034983;28;20467;-79
2021/04/17 03:38:14;;;;;;;4.93;3.67;;;5.60;72.70;;;;;;5034581;28;20705;-79
2021/04/17 03:40:40;;;;;;;8.10;4.77;;;5.60;72.70;;;;;;5016405;28;20025;-78
2021/04/17 03:43:05;;;;;;;7.73;4.10;;;5.60;72.40;;;;;;5031692;28;20026;-79
2021/04/17 03:45:31;;;;;;;10.67;4.37;;;5.50;72.80;;;;;;5032665;28;20116;-79
2021/04/17 03:47:57;;;;;;;8.90;4.80;;;5.40;72.60;;;;;;5033336;28;20139;-79
2021/04/17 03:50:23;;;;;;;9.10;4.63;;;5.40;73.10;;;;;;4999637;28;20041;-79
2021/04/17 03:52:49;;;;;;;8.20;4.47;;;5.20;72.60;;;;;;5032509;28;20486;-79
2021/04/17 03:55:17;;;;;;;8.03;4.10;;;5.20;73.60;;;;;;5031475;28;20033;-78
2021/04/17 03:57:43;;;;;;;9.30;6.00;;;5.20;73.90;;;;;;5033438;28;20033;-79
2021/04/17 04:00:12;;;;;;;9.97;5.10;;;5.30;73.60;;;;;;5032500;28;20095;-79
2021/04/17 04:02:37;;;;;;;8.33;4.60;;;5.20;73.50;;;;;;5032609;28;20078;-79
2021/04/17 04:05:04;;;;;;;8.43;4.90;;;5.30;74.40;;;;;;5031460;28;20120;-81
2021/04/17 04:07:30;;;;;;;7.97;4.63;;;5.40;74.40;;;;;;5032047;28;20021;-80
2021/04/17 04:09:56;;;;;;;7.50;4.60;;;5.40;74.00;;;;;;5015766;28;20112;-80
2021/04/17 04:12:21;;;;;;;8.70;4.60;;;5.40;73.80;;;;;;5011022;28;20356;-80
2021/04/17 04:14:47;;;;;;;10.30;4.63;;;5.30;73.80;;;;;;5012350;28;20038;-80
2021/04/17 04:17:13;;;;;;;9.30;4.80;;;5.20;74.00;;;;;;5022277;28;20129;-80
2021/04/17 04:19:38;;;;;;;8.20;4.27;;;5.30;74.50;;;;;;5016246;28;20040;-80
2021/04/17 04:22:04;;;;;;;6.30;4.30;;;5.30;74.40;;;;;;5032060;28;20025;-78
2021/04/17 04:24:29;;;;;;;11.93;4.83;;;5.40;74.60;;;;;;5015203;28;20124;-79
2021/04/17 04:26:56;;;;;;;7.60;4.63;;;5.40;74.20;;;;;;5033387;28;20037;-79
2021/04/17 04:29:22;;;;;;;8.43;5.53;;;5.30;74.20;;;;;;5031312;28;20160;-79
2021/04/17 04:31:47;;;;;;;8.87;4.63;;;5.30;74.20;;;;;;5031808;28;20471;-79
2021/04/17 04:34:13;;;;;;;10.13;5.83;;;5.20;74.20;;;;;;4998151;28;20455;-80
2021/04/17 04:36:39;;;;;;;11.97;4.63;;;5.10;74.30;;;;;;5032501;28;20037;-79
2021/04/17 04:39:04;;;;;;;9.90;5.37;;;5.10;74.90;;;;;;5014494;28;20054;-79
2021/04/17 04:41:30;;;;;;;11.80;5.57;;;5.20;74.80;;;;;;5030996;28;20403;-79
2021/04/17 04:43:56;;;;;;;16.13;5.83;;;5.10;74.50;;;;;;5014907;28;20471;-79
2021/04/17 04:46:21;;;;;;;9.27;5.33;;;5.20;74.70;;;;;;5013996;28;20132;-79
2021/04/17 04:48:47;;;;;;;9.00;5.43;;;5.30;74.80;;;;;;5031428;28;20808;-79
2021/04/17 04:51:13;;;;;;;10.20;5.80;;;5.40;74.60;;;;;;5030517;28;20030;-79
2021/04/17 04:53:39;;;;;;;10.27;5.60;;;5.50;74.30;;;;;;5015234;28;20034;-79
2021/04/17 04:56:05;;;;;;;9.07;6.13;;;5.70;73.90;;;;;;5031800;28;20049;-79
2021/04/17 04:58:31;;;;;;;8.33;5.43;;;5.80;73.20;;;;;;5030816;28;20506;-78
2021/04/17 05:00:56;;;;;;;9.93;4.83;;;5.80;73.10;;;;;;5031226;28;20055;-78
2021/04/17 05:03:22;;;;;;;14.37;5.83;;;5.80;73.70;;;;;;5013956;28;20029;-79
2021/04/17 05:05:47;;;;;;;9.47;4.60;;;5.90;73.40;;;;;;5014401;28;20123;-79
2021/04/17 05:08:13;;;;;;;9.70;4.37;;;6.00;73.50;;;;;;5014170;28;20171;-80
2021/04/17 05:10:39;;;;;;;8.03;5.03;;;6.10;73.60;;;;;;5015039;28;20025;-79
2021/04/17 05:13:04;;;;;;;10.27;5.07;;;6.40;72.90;;;;;;5043547;28;20049;-79
2021/04/17 05:15:30;;;;;;;7.43;4.60;;;6.80;72.60;;;;;;5034122;28;20444;-78
2021/04/17 05:17:56;;;;;;;9.57;5.23;;;7.30;71.30;;;;;;5016677;28;20123;-79
2021/04/17 05:20:21;;;;;;;9.60;5.67;;;7.60;69.40;;;;;;5001621;28;20068;-80
2021/04/17 05:22:47;;;;;;;9.97;5.53;;;7.60;67.90;;;;;;5055647;28;20043;-79
2021/04/17 05:25:13;;;;;;;12.50;5.27;;;7.60;68.20;;;;;;5019797;28;20424;-80
2021/04/17 05:27:38;;;;;;;8.23;4.87;;;7.90;68.50;;;;;;5055177;28;20041;-79
2021/04/17 05:30:05;;;;;;;9.03;6.03;;;8.30;66.90;;;;;;5020756;28;20116;-78
2021/04/17 05:32:31;;;;;;;13.03;6.07;;;8.40;66.00;;;;;;5035641;28;20288;-79
2021/04/17 05:34:56;;;;;;;9.30;5.00;;;8.20;65.80;;;;;;5003518;28;20029;-81
2021/04/17 05:37:22;;;;;;;12.50;5.20;;;8.20;66.80;;;;;;5019075;28;20040;-80
2021/04/17 05:39:48;;;;;;;12.67;6.47;;;8.30;67.00;;;;;;5018727;28;20033;-80
2021/04/17 05:42:14;;;;;;;8.60;4.70;;;8.30;66.20;;;;;;5052485;28;20162;-82
2021/04/17 05:44:39;;;;;;;10.20;5.73;;;8.30;66.60;;;;;;5034554;28;20040;-80
2021/04/17 05:47:05;;;;;;;8.50;5.43;;;8.40;66.40;;;;;;5018458;28;20119;-80
2021/04/17 05:49:31;;;;;;;11.03;6.07;;;8.40;66.10;;;;;;5013043;28;20037;-80
2021/04/17 05:51:56;;;;;;;9.07;5.63;;;8.40;65.80;;;;;;5010385;28;20033;-80
2021/04/17 05:54:22;;;;;;;10.87;5.10;;;8.30;66.30;;;;;;5032208;28;20037;-80
2021/04/17 05:56:48;;;;;;;10.07;5.93;;;8.20;66.40;;;;;;5034046;28;20082;-80
2021/04/17 05:59:14;;;;;;;10.43;5.50;;;8.30;66.20;;;;;;5000234;28;20029;-80
2021/04/17 06:01:40;;;;;;;12.43;6.50;;;8.50;66.10;;;;;;5017437;28;20104;-80
2021/04/17 06:04:05;;;;;;;8.57;4.30;;;8.60;65.20;;;;;;5033297;28;20037;-80
2021/04/17 06:06:31;;;;;;;8.00;4.97;;;8.70;66.00;;;;;;5020900;28;20039;-80
2021/04/17 06:08:57;;;;;;;9.00;4.50;;;9.20;66.60;;;;;;5023388;28;20045;-80
2021/04/17 06:11:23;;;;;;;10.00;5.03;;;9.80;65.40;;;;;;5024162;28;20037;-80
2021/04/17 06:13:51;;;;;;;12.63;5.63;;;10.40;63.20;;;;;;5059124;28;20052;-79
2021/04/17 06:16:18;;;;;;;9.90;4.83;;;10.50;60.40;;;;;;5043426;28;20029;-80
2021/04/17 06:18:44;;;;;;;9.10;5.07;;;10.60;61.70;;;;;;5028413;28;20067;-80
2021/04/17 06:21:11;;;;;;;9.57;5.70;;;11.00;60.50;;;;;;5030844;28;20540;-80
2021/04/17 06:23:37;;;;;;;10.70;4.97;;;11.30;58.50;;;;;;5025520;28;20140;-79
2021/04/17 06:26:02;;;;;;;7.87;5.03;;;11.90;57.90;;;;;;5004139;28;20065;-80
2021/04/17 06:28:30;;;;;;;10.13;5.70;;;12.40;56.20;;;;;;5014186;28;20056;-81
2021/04/17 06:30:56;;;;;;;10.83;5.60;;;12.70;54.30;;;;;;4982642;28;20072;-80
2021/04/17 06:33:22;;;;;;;7.53;4.60;;;12.90;52.90;;;;;;5013794;28;20017;-80
2021/04/17 06:35:48;;;;;;;12.27;5.60;;;13.10;52.70;;;;;;5016250;28;20520;-80
2021/04/17 06:38:15;;;;;;;9.63;4.87;;;13.40;52.00;;;;;;5034426;28;20025;-81
2021/04/17 06:40:42;;;;;;;6.10;4.77;;;13.50;51.40;;;;;;5034937;28;20173;-80
2021/04/17 06:43:08;;;;;;;8.90;5.67;;;13.80;50.80;;;;;;5053695;28;20032;-80
2021/04/17 06:45:37;;;;;;;9.73;5.23;;;13.80;50.30;;;;;;5053026;28;20040;-80
2021/04/17 06:48:10;;;;;;;8.77;5.03;;;13.90;50.70;;;;;;5053227;28;20036;-80
2021/04/17 06:50:38;;;;;;;6.67;5.13;;;14.20;49.70;;;;;;5053122;28;20119;-80
2021/04/17 06:53:08;;;;;;;6.45;4.13;;;14.20;49.10;;;;;;5050663;28;20024;-80
2021/04/17 06:55:34;;;;;;;7.90;5.85;;;14.70;49.40;;;;;;5032100;28;20021;-80
2021/04/17 06:58:01;;;;;;;7.90;5.45;;;14.80;46.80;;;;;;5020233;28;20037;-80
2021/04/17 07:00:26;;;;;;;10.43;5.22;;;14.60;48.10;;;;;;5046302;28;20032;-80
2021/04/17 07:02:53;;;;;;;10.20;6.05;;;14.70;47.70;;;;;;5019710;28;20025;-81
2021/04/17 07:05:19;;;;;;;13.35;5.65;;;14.60;46.40;;;;;;5036847;28;20540;-80
2021/04/17 07:07:45;;;;;;;9.20;5.38;;;13.90;47.30;;;;;;5035977;28;20025;-80
2021/04/17 07:10:11;;;;;;;8.57;4.93;;;14.00;48.70;;;;;;5036640;28;20041;-82
2021/04/17 07:12:37;;;;;;;10.15;5.00;;;14.10;47.70;;;;;;5035501;28;20049;-80
2021/04/17 07:15:06;;;;;;;7.32;5.07;;;14.10;47.60;;;;;;5036360;28;20539;-79
2021/04/17 07:17:33;;;;;;;10.00;4.32;;;14.50;47.30;;;;;;5035911;28;20027;-80
2021/04/17 07:20:07;;;;;;;7.43;4.22;;;14.50;48.20;;;;;;5035788;28;20033;-80
2021/04/17 07:22:37;;;;;;;11.00;5.38;;;15.20;47.10;;;;;;5036651;28;20026;-81
2021/04/17 07:25:06;;;;;;;9.10;4.30;;;15.90;43.80;;;;;;5042197;28;20036;-80
2021/04/17 07:27:51;;;;;;;10.82;5.18;;;15.60;44.90;;;;;;5057430;28;20095;-80
2021/04/17 07:30:22;;;;;;;9.40;4.60;;;15.10;44.70;;;;;;5054170;28;20021;-78
2021/04/17 07:33:03;;;;;;;6.90;3.53;;;15.30;46.80;;;;;;5054148;28;20017;-80
2021/04/17 07:35:34;;;;;;;6.80;4.00;;;15.90;46.40;;;;;;5035861;28;20091;-81
2021/04/17 07:38:08;;;;;;;9.25;3.13;;;17.00;44.70;;;;;;5035988;28;20027;-81
2021/04/17 07:40:34;;;;;;;8.18;3.63;;;16.90;43.30;;;;;;5035433;28;20086;-81
2021/04/17 07:43:00;;;;;;;8.90;3.65;;;17.20;42.70;;;;;;5036115;28;20025;-80
2021/04/17 07:45:32;;;;;;;9.68;4.03;;;17.10;42.00;;;;;;5029024;28;20037;-81
2021/04/17 07:48:01;;;;;;;5.13;2.92;;;17.40;41.90;;;;;;5043719;28;20029;-82
2021/04/17 07:50:34;;;;;;;8.15;3.42;;;17.70;41.40;;;;;;5036874;28;20025;-82
2021/04/17 07:53:00;;;;;;;6.47;3.40;;;18.20;40.10;;;;;;5035627;28;20515;-80
2021/04/17 07:55:33;;;;;;;8.40;3.20;;;17.60;39.70;;;;;;5053903;28;20037;-81
2021/04/17 07:58:01;;;;;;;8.90;3.75;;;17.60;40.90;;;;;;5036207;28;20064;-82
2021/04/17 08:00:28;;;;;;;8.15;3.33;;;17.40;40.20;;;;;;5036423;28;20039;-83
2021/04/17 08:02:56;;;;;;;7.70;2.75;;;17.30;41.30;;;;;;5020815;28;20639;-81
2021/04/17 08:05:24;;;;;;;8.13;2.67;;;17.80;41.10;;;;;;5040868;28;20523;-82
2021/04/17 08:07:51;;;;;;;5.45;3.03;;;17.70;40.00;;;;;;5068207;28;20029;-82
2021/04/17 08:10:18;;;;;;;5.88;3.00;;;18.10;40.50;;;;;;5051586;28;20034;-82
2021/04/17 08:12:45;;;;;;;6.40;2.85;;;18.50;39.40;;;;;;5028525;28;20053;-82
2021/04/17 08:15:15;;;;;;;7.55;3.20;;;18.30;39.20;;;;;;5047217;28;20037;-82
2021/04/17 08:17:42;;;;;;;6.88;2.72;;;18.30;39.80;;;;;;5045837;28;20079;-79
2021/04/17 08:20:10;;;;;;;4.60;2.70;;;18.90;39.40;;;;;;5048986;28;20044;-81
2021/04/17 08:22:37;;;;;;;9.48;2.50;;;19.40;38.10;;;;;;5016832;28;20026;-81
2021/04/17 08:25:04;;;;;;;8.70;2.67;;;19.90;38.20;;;;;;5010787;28;20062;-80
2021/04/17 08:27:31;;;;;;;5.50;2.20;;;20.00;36.00;;;;;;5043472;28;20457;-82
2021/04/17 08:29:58;;;;;;;4.47;2.20;;;19.40;36.70;;;;;;5040991;28;20238;-82
2021/04/17 08:32:27;;;;;;;4.95;2.40;;;19.70;36.90;;;;;;5005040;28;20040;-82
2021/04/17 08:35:04;;;;;;;6.00;2.10;;;19.80;36.30;;;;;;5036053;28;20041;-80
2021/04/17 08:37:32;;;;;;;5.35;2.58;;;20.10;35.70;;;;;;5036655;28;20021;-80
2021/04/17 08:39:58;;;;;;;4.45;1.85;;;19.80;36.40;;;;;;5036109;28;20151;-81
2021/04/17 08:42:47;;;;;;;5.97;1.95;;;20.00;36.40;;;;;;5036725;28;20460;-81
2021/04/17 08:45:18;;;;;;;6.90;2.25;;;20.40;34.90;;;;;;5036778;28;20045;-81
2021/04/17 08:47:50;;;;;;;4.57;2.10;;;20.60;34.80;;;;;;5037434;28;20033;-82
2021/04/17 08:50:23;;;;;;;5.85;1.50;;;20.80;34.10;;;;;;5036486;28;20151;-84
2021/04/17 08:52:59;;;;;;;3.65;1.63;;;20.80;34.30;;;;;;5032503;28;20112;-83
2021/04/17 08:55:37;;;;;;;5.15;1.80;;;20.80;33.60;;;;;;5037469;28;20083;-83
2021/04/17 08:58:15;;;;;;;4.10;1.77;;;20.00;33.70;;;;;;5036430;28;20445;-83
2021/04/17 09:00:50;;;;;;;3.58;1.40;;;19.60;35.50;;;;;;5031902;28;20463;-82
2021/04/17 09:03:35;;;;;;;5.07;1.70;;;20.00;35.30;;;;;;5031834;28;20018;-82
2021/04/17 09:06:01;;;;;;;5.72;1.50;;;20.60;34.30;;;;;;5032775;28;20462;-84
2021/04/17 09:08:26;;;;;;;3.55;1.65;;;21.00;34.40;;;;;;5015430;28;20559;-83
2021/04/17 09:10:54;;;;;;;8.63;1.60;;;21.40;34.40;;;;;;5016440;28;20024;-83
2021/04/17 09:13:22;;;;;;;4.20;1.40;;;21.80;33.40;;;;;;5047768;28;20045;-80
2021/04/17 09:15:59;;;;;;;4.18;1.25;;;22.10;32.80;;;;;;5047818;28;20037;-83
2021/04/17 09:18:37;;;;;;;3.55;1.60;;;21.90;29.80;;;;;;5031216;28;20047;-82
2021/04/17 09:21:11;;;;;;;4.38;1.08;;;20.70;30.50;;;;;;5028683;28;20472;-84
2021/04/17 09:23:46;;;;;;;5.47;1.20;;;20.60;32.80;;;;;;5035999;28;20040;-81
2021/04/17 09:26:30;;;;;;;5.30;1.30;;;20.90;32.30;;;;;;5031802;28;20033;-80
2021/04/17 09:29:16;;;;;;;2.63;0.85;;;19.40;32.40;;;;;;5030246;28;20122;-81
2021/04/17 09:31:42;;;;;;;4.15;1.10;;;18.80;35.00;;;;;;5007050;28;20042;-81
2021/04/17 09:34:14;;;;;;;2.50;0.90;;;19.20;34.90;;;;;;5010159;28;20030;-81
2021/04/17 09:36:40;;;;;;;4.30;1.00;;;20.00;33.60;;;;;;5030904;28;20108;-81
2021/04/17 09:39:29;;;;;;;3.17;1.10;;;20.60;31.60;;;;;;5021072;28;20037;-81
2021/04/17 09:42:00;;;;;;;2.17;0.85;;;20.70;31.40;;;;;;5050744;28;20020;-81
2021/04/17 09:44:41;;;;;;;2.28;0.90;;;20.90;31.10;;;;;;5049963;28;20029;-81
2021/04/17 09:47:09;;;;;;;3.08;1.05;;;21.10;30.60;;;;;;5050990;28;20033;-81
2021/04/17 09:49:43;;;;;;;3.47;1.08;;;21.40;29.80;;;;;;5050181;28;20116;-82
2021/04/17 09:52:11;;;;;;;2.25;0.93;;;21.00;30.10;;;;;;5037479;28;20029;-81
2021/04/17 09:54:37;;;;;;;4.18;1.13;;;20.80;30.20;;;;;;5032225;28;20034;-79
2021/04/17 09:57:10;;;;;;;4.20;1.27;;;20.90;30.40;;;;;;5032439;28;20095;-79
2021/04/17 09:59:36;;;;;;;3.83;1.30;;;20.70;29.20;;;;;;5014647;28;20095;-80
2021/04/17 10:02:04;;;;;;;2.85;0.90;;;20.20;28.60;;;;;;5034214;28;20022;-79
2021/04/17 10:04:57;;;;;;;2.47;0.93;;;19.30;31.20;;;;;;5020698;28;20128;-80
2021/04/17 10:07:22;;;;;;;;;;;19.60;31.10;;;;;;5036853;28;20021;-81
2021/04/17 10:10:04;;;;;;;2.60;1.17;;;19.80;31.80;;;;;;5033984;28;20385;-81
2021/04/17 10:12:49;;;;;;;3.20;0.95;;;20.20;31.00;;;;;;5041705;28;20045;-81
2021/04/17 10:15:28;;;;;;;2.80;0.90;;;20.60;29.60;;;;;;5056848;28;20029;-82
2021/04/17 10:17:56;;;;;;;2.88;1.08;;;20.20;29.20;;;;;;5035656;28;20032;-81
2021/04/17 10:20:23;;;;;;;3.25;1.17;;;20.10;30.20;;;;;;5036036;28;20021;-82
2021/04/17 10:22:57;;;;;;;4.15;1.27;;;19.90;30.00;;;;;;5036911;28;20112;-82
2021/04/17 10:25:33;;;;;;;3.17;1.23;;;19.50;30.50;;;;;;5035682;28;20033;-81
2021/04/17 10:28:11;;;;;;;4.38;0.88;;;19.10;31.90;;;;;;5052073;28;20067;-82
2021/04/17 10:30:37;;;;;;;3.03;1.25;;;19.70;31.90;;;;;;5034760;28;20029;-80
2021/04/17 10:33:02;;;;;;;6.35;1.20;;;19.80;29.60;;;;;;5017612;28;20086;-81
2021/04/17 10:35:33;;;;;;;5.00;1.27;;;19.80;31.20;;;;;;5034374;28;20057;-82
2021/04/17 10:37:59;;;;;;;3.00;1.20;;;20.10;30.10;;;;;;5052445;28;20025;-81
2021/04/17 10:40:26;;;;;;;2.88;1.10;;;19.60;30.00;;;;;;5033615;28;20378;-82
2021/04/17 10:42:54;;;;;;;2.50;1.00;;;18.90;31.70;;;;;;5033784;28;20036;-81
2021/04/17 10:45:29;;;;;;;9.77;1.73;;;19.30;31.80;;;;;;5035291;28;20025;-81
2021/04/17 10:48:06;;;;;;;3.40;1.10;;;19.30;31.40;;;;;;5035133;28;20036;-81
2021/04/17 10:50:35;;;;;;;3.13;1.00;;;19.30;31.40;;;;;;5037219;28;20488;-79
2021/04/17 10:53:11;;;;;;;1.95;1.10;;;19.20;31.40;;;;;;5037218;28;20029;-80
2021/04/17 10:55:43;;;;;;;1.65;0.70;;;19.00;30.70;;;;;;5036180;28;20029;-81
2021/04/17 10:58:28;;;;;;;4.35;1.10;;;19.10;32.10;;;;;;5052150;28;20029;-82
2021/04/17 11:01:00;;;;;;;5.18;0.90;;;19.40;31.90;;;;;;5033456;28;20123;-82
2021/04/17 11:03:28;;;;;;;3.05;1.10;;;19.70;31.60;;;;;;5049662;28;20963;-82
2021/04/17 11:05:54;;;;;;;2.70;1.10;;;20.00;30.70;;;;;;4999292;28;20040;-80
2021/04/17 11:08:30;;;;;;;2.88;1.08;;;19.40;29.80;;;;;;5011326;28;20603;-81
2021/04/17 11:11:06;;;;;;;3.72;1.20;;;19.10;32.20;;;;;;5013302;28;20029;-82
2021/04/17 11:13:37;;;;;;;4.05;1.10;;;19.40;30.80;;;;;;5014645;28;20507;-80
2021/04/17 11:16:03;;;;;;;2.42;1.00;;;19.40;30.90;;;;;;5012310;28;20034;-81
2021/04/17 11:18:34;;;;;;;2.50;1.00;;;18.90;30.90;;;;;;4980635;28;20056;-81
2021/04/17 11:21:02;;;;;;;3.10;1.20;;;18.30;30.50;;;;;;5034103;28;20021;-81
2021/04/17 11:23:36;;;;;;;2.85;1.10;;;18.00;30.10;;;;;;5053398;28;20078;-82
2021/04/17 11:26:10;;;;;;;3.03;1.15;;;17.50;32.50;;;;;;5050475;28;20033;-79
2021/04/17 11:28:38;;;;;;;3.70;1.00;;;18.40;33.00;;;;;;5055726;28;20068;-83
2021/04/17 11:31:04;;;;;;;1.90;0.90;;;19.20;32.40;;;;;;5043448;28;20463;-81
2021/04/17 11:33:29;;;;;;;4.15;1.20;;;19.90;31.40;;;;;;5040576;28;20041;-82
2021/04/17 11:35:56;;;;;;;3.35;0.93;;;20.10;29.30;;;;;;5032187;28;20044;-81
2021/04/17 11:38:24;;;;;;;2.65;0.90;;;19.50;30.10;;;;;;5031484;28;20159;-83
2021/04/17 11:40:50;;;;;;;3.28;1.10;;;19.30;29.30;;;;;;5050567;28;20021;-82
2021/04/17 11:43:16;;;;;;;3.90;1.08;;;18.70;30.90;;;;;;5031518;28;20067;-81
2021/04/17 11:45:41;;;;;;;2.10;0.82;;;18.70;30.30;;;;;;5015937;28;20029;-83
2021/04/17 11:48:07;;;;;;;2.00;0.70;;;18.60;31.30;;;;;;5016501;28;20063;-82
2021/04/17 11:50:33;;;;;;;1.73;0.90;;;19.20;32.10;;;;;;5036263;28;20032;-82
2021/04/17 11:52:59;;;;;;;6.15;1.17;;;19.60;30.00;;;;;;5015738;28;20036;-83
2021/04/17 11:55:25;;;;;;;2.33;0.95;;;19.70;29.50;;;;;;5023564;28;20037;-82
2021/04/17 11:57:51;;;;;;;3.55;1.00;;;19.60;29.70;;;;;;5036052;28;20037;-82
2021/04/17 12:00:20;;;;;;;3.17;0.93;;;19.70;29.70;;;;;;5018612;28;20040;-81
2021/04/17 12:02:46;;;;;;;3.47;1.13;;;20.10;30.00;;;;;;5019861;28;20080;-82
2021/04/17 12:05:11;;;;;;;4.72;1.30;;;19.80;29.20;;;;;;5026787;28;20478;-84
2021/04/17 12:07:38;;;;;;;3.85;0.88;;;19.20;30.50;;;;;;5025172;28;20048;-83
2021/04/17 12:10:05;;;;;;;6.18;1.30;;;19.50;30.30;;;;;;5022797;28;20031;-82
2021/04/17 12:12:31;;;;;;;3.03;1.10;;;19.70;30.60;;;;;;5072772;28;20056;-82
2021/04/17 12:14:57;;;;;;;4.22;0.80;;;20.00;30.60;;;;;;5038753;28;20028;-82
2021/04/17 12:17:23;;;;;;;2.58;0.88;;;20.10;30.30;;;;;;5068540;28;20431;-82
2021/04/17 12:19:48;;;;;;;4.97;1.10;;;19.90;29.70;;;;;;5065637;28;20025;-82
2021/04/17 12:22:14;;;;;;;2.40;0.90;;;19.60;29.70;;;;;;5024143;28;20033;-85
2021/04/17 12:24:39;;;;;;;2.83;0.90;;;19.70;30.80;;;;;;5038864;28;20036;-84
2021/04/17 12:27:05;;;;;;;2.00;0.88;;;20.10;30.20;;;;;;5038905;28;20584;-83
2021/04/17 12:29:31;;;;;;;4.68;1.10;;;20.20;29.60;;;;;;5054465;28;20661;-81
2021/04/17 12:31:58;;;;;;;3.63;0.90;;;19.90;29.70;;;;;;5022280;28;20036;-82
2021/04/17 12:34:23;;;;;;;3.65;1.10;;;19.20;29.60;;;;;;5037928;28;20432;-83
2021/04/17 12:36:49;;;;;;;3.80;1.20;;;18.80;30.00;;;;;;5038562;28;20032;-81
2021/04/17 12:39:15;;;;;;;2.10;0.75;;;18.10;31.40;;;;;;5037623;28;20032;-82
2021/04/17 12:41:40;;;;;;;4.22;1.27;;;18.10;32.70;;;;;;5055128;28;20056;-82
2021/04/17 12:44:10;;;;;;;3.35;1.00;;;18.20;31.20;;;;;;5038369;28;20035;-83
2021/04/17 12:46:37;;;;;;;3.42;1.33;;;18.30;32.90;;;;;;5054909;28;20123;-82
2021/04/17 12:49:03;;;;;;;8.35;1.63;;;18.50;32.80;;;;;;5055062;28;20032;-84
2021/04/17 12:51:30;;;;;;;4.55;1.60;;;17.80;33.60;;;;;;5042800;28;20107;-82
2021/04/17 12:53:59;;;;;;;6.22;1.50;;;17.50;34.10;;;;;;5021137;28;20025;-83
2021/04/17 12:56:26;;;;;;;5.40;1.38;;;17.00;35.70;;;;;;5052584;28;20021;-82